sensor_id;sensor_type;location;lat;lon;timestamp;P1;durP1;ratioP1;P2;durP2;ratioP2
17991;SDS011;9121;50.926;5.340;2024-01-15T00:01:46;63.63;;;21.00;;
17991;SDS011;9121;50.926;5.340;2024-01-15T00:04:13;63.50;;;21.00;;
17991;SDS011;9121;50.926;5.340;2024-01-15T00:06:40;61.80;;;23.30;;
17991;SDS011;9121;50.926;5.340;2024-01-15T00:09:07;69.43;;;22.47;;
17991;SDS011;9121;50.926;5.340;2024-01-15T00:11:35;70.23;;;22.00;;
17991;SDS011;9121;50.926;5.340;2024-01-15T00:14:02;57.47;;;20.00;;
17991;SDS011;9121;50.926;5.340;2024-01-15T00:16:30;64.00;;;22.10;;
17991;SDS011;9121;50.926;5.340;2024-01-15T00:18:57;57.17;;;21.07;;
17991;SDS011;9121;50.926;5.340;2024-01-15T00:21:24;66.97;;;21.73;;
17991;SDS011;9121;50.926;5.340;2024-01-15T00:23:52;63.73;;;20.30;;
17991;SDS011;9121;50.926;5.340;2024-01-15T00:26:19;62.20;;;21.60;;
17991;SDS011;9121;50.926;5.340;2024-01-15T00:28:46;66.47;;;21.73;;
17991;SDS011;9121;50.926;5.340;2024-01-15T00:31:13;60.00;;;20.63;;
17991;SDS011;9121;50.926;5.340;2024-01-15T00:33:43;61.13;;;22.10;;
17991;SDS011;9121;50.926;5.340;2024-01-15T00:36:10;62.83;;;22.13;;
17991;SDS011;9121;50.926;5.340;2024-01-15T00:38:37;71.10;;;21.97;;
17991;SDS011;9121;50.926;5.340;2024-01-15T00:41:04;69.40;;;21.53;;
17991;SDS011;9121;50.926;5.340;2024-01-15T00:43:31;67.53;;;22.07;;
17991;SDS011;9121;50.926;5.340;2024-01-15T00:46:01;67.17;;;23.03;;
17991;SDS011;9121;50.926;5.340;2024-01-15T00:48:28;63.33;;;22.53;;
17991;SDS011;9121;50.926;5.340;2024-01-15T00:50:56;62.27;;;21.37;;
17991;SDS011;9121;50.926;5.340;2024-01-15T00:53:25;58.50;;;21.73;;
17991;SDS011;9121;50.926;5.340;2024-01-15T00:55:52;63.27;;;21.60;;
17991;SDS011;9121;50.926;5.340;2024-01-15T00:58:19;69.33;;;22.80;;
17991;SDS011;9121;50.926;5.340;2024-01-15T01:00:46;70.20;;;22.53;;
17991;SDS011;9121;50.926;5.340;2024-01-15T01:03:13;72.83;;;22.07;;
17991;SDS011;9121;50.926;5.340;2024-01-15T01:05:40;75.73;;;23.80;;
17991;SDS011;9121;50.926;5.340;2024-01-15T01:08:08;74.40;;;23.17;;
17991;SDS011;9121;50.926;5.340;2024-01-15T01:10:35;70.37;;;24.23;;
17991;SDS011;9121;50.926;5.340;2024-01-15T01:13:02;69.80;;;22.47;;
17991;SDS011;9121;50.926;5.340;2024-01-15T01:15:29;76.57;;;24.40;;
17991;SDS011;9121;50.926;5.340;2024-01-15T01:17:56;79.07;;;23.57;;
17991;SDS011;9121;50.926;5.340;2024-01-15T01:20:23;69.70;;;22.23;;
17991;SDS011;9121;50.926;5.340;2024-01-15T01:22:50;67.40;;;22.63;;
17991;SDS011;9121;50.926;5.340;2024-01-15T01:25:18;76.03;;;24.70;;
17991;SDS011;9121;50.926;5.340;2024-01-15T01:27:45;64.87;;;22.67;;
17991;SDS011;9121;50.926;5.340;2024-01-15T01:30:12;61.73;;;22.90;;
17991;SDS011;9121;50.926;5.340;2024-01-15T01:32:39;68.53;;;22.07;;
17991;SDS011;9121;50.926;5.340;2024-01-15T01:35:06;68.93;;;22.70;;
17991;SDS011;9121;50.926;5.340;2024-01-15T01:37:33;64.80;;;20.97;;
17991;SDS011;9121;50.926;5.340;2024-01-15T01:40:00;58.30;;;21.00;;
17991;SDS011;9121;50.926;5.340;2024-01-15T01:42:29;60.70;;;20.20;;
17991;SDS011;9121;50.926;5.340;2024-01-15T01:44:55;67.67;;;20.93;;
17991;SDS011;9121;50.926;5.340;2024-01-15T01:47:22;66.03;;;22.07;;
17991;SDS011;9121;50.926;5.340;2024-01-15T01:49:51;63.90;;;20.47;;
17991;SDS011;9121;50.926;5.340;2024-01-15T01:52:18;61.23;;;22.07;;
17991;SDS011;9121;50.926;5.340;2024-01-15T01:54:45;55.30;;;19.03;;
17991;SDS011;9121;50.926;5.340;2024-01-15T01:57:12;65.53;;;20.63;;
17991;SDS011;9121;50.926;5.340;2024-01-15T01:59:43;59.17;;;20.93;;
17991;SDS011;9121;50.926;5.340;2024-01-15T02:02:10;51.57;;;18.00;;
17991;SDS011;9121;50.926;5.340;2024-01-15T02:04:38;56.53;;;18.57;;
17991;SDS011;9121;50.926;5.340;2024-01-15T02:07:06;54.63;;;19.37;;
17991;SDS011;9121;50.926;5.340;2024-01-15T02:09:32;51.60;;;18.97;;
17991;SDS011;9121;50.926;5.340;2024-01-15T02:11:59;51.20;;;18.83;;
17991;SDS011;9121;50.926;5.340;2024-01-15T02:14:27;55.13;;;18.43;;
17991;SDS011;9121;50.926;5.340;2024-01-15T02:16:55;51.83;;;19.07;;
17991;SDS011;9121;50.926;5.340;2024-01-15T02:19:23;51.33;;;18.03;;
17991;SDS011;9121;50.926;5.340;2024-01-15T02:21:49;43.10;;;16.90;;
17991;SDS011;9121;50.926;5.340;2024-01-15T02:24:18;43.73;;;16.27;;
17991;SDS011;9121;50.926;5.340;2024-01-15T02:26:45;47.10;;;16.93;;
17991;SDS011;9121;50.926;5.340;2024-01-15T02:29:12;46.57;;;16.90;;
17991;SDS011;9121;50.926;5.340;2024-01-15T02:31:40;45.30;;;16.03;;
17991;SDS011;9121;50.926;5.340;2024-01-15T02:34:07;39.40;;;16.13;;
17991;SDS011;9121;50.926;5.340;2024-01-15T02:36:33;39.37;;;16.47;;
17991;SDS011;9121;50.926;5.340;2024-01-15T02:39:00;38.90;;;16.03;;
17991;SDS011;9121;50.926;5.340;2024-01-15T02:41:29;41.87;;;16.23;;
17991;SDS011;9121;50.926;5.340;2024-01-15T02:43:56;44.80;;;17.13;;
17991;SDS011;9121;50.926;5.340;2024-01-15T02:46:23;43.77;;;16.63;;
17991;SDS011;9121;50.926;5.340;2024-01-15T02:48:50;45.77;;;16.43;;
17991;SDS011;9121;50.926;5.340;2024-01-15T02:51:17;40.13;;;15.80;;
17991;SDS011;9121;50.926;5.340;2024-01-15T02:53:44;43.73;;;16.30;;
17991;SDS011;9121;50.926;5.340;2024-01-15T02:56:11;41.40;;;15.43;;
17991;SDS011;9121;50.926;5.340;2024-01-15T02:58:39;43.70;;;16.87;;
17991;SDS011;9121;50.926;5.340;2024-01-15T03:01:06;42.40;;;16.27;;
17991;SDS011;9121;50.926;5.340;2024-01-15T03:03:33;36.60;;;14.70;;
17991;SDS011;9121;50.926;5.340;2024-01-15T03:06:01;39.70;;;14.20;;
17991;SDS011;9121;50.926;5.340;2024-01-15T03:08:28;33.63;;;14.13;;
17991;SDS011;9121;50.926;5.340;2024-01-15T03:10:55;37.60;;;14.17;;
17991;SDS011;9121;50.926;5.340;2024-01-15T03:13:22;33.23;;;13.97;;
17991;SDS011;9121;50.926;5.340;2024-01-15T03:15:50;34.47;;;14.50;;
17991;SDS011;9121;50.926;5.340;2024-01-15T03:18:17;29.90;;;13.63;;
17991;SDS011;9121;50.926;5.340;2024-01-15T03:20:44;32.13;;;13.57;;
17991;SDS011;9121;50.926;5.340;2024-01-15T03:23:11;39.93;;;15.33;;
17991;SDS011;9121;50.926;5.340;2024-01-15T03:25:38;40.20;;;13.77;;
17991;SDS011;9121;50.926;5.340;2024-01-15T03:28:05;33.20;;;13.90;;
17991;SDS011;9121;50.926;5.340;2024-01-15T03:30:32;35.10;;;14.23;;
17991;SDS011;9121;50.926;5.340;2024-01-15T03:33:00;30.33;;;13.77;;
17991;SDS011;9121;50.926;5.340;2024-01-15T03:35:27;35.57;;;13.03;;
17991;SDS011;9121;50.926;5.340;2024-01-15T03:37:55;35.37;;;12.73;;
17991;SDS011;9121;50.926;5.340;2024-01-15T03:40:22;32.10;;;12.90;;
17991;SDS011;9121;50.926;5.340;2024-01-15T03:42:49;30.77;;;12.07;;
17991;SDS011;9121;50.926;5.340;2024-01-15T03:45:17;35.73;;;13.40;;
17991;SDS011;9121;50.926;5.340;2024-01-15T03:47:44;28.63;;;11.90;;
17991;SDS011;9121;50.926;5.340;2024-01-15T03:50:12;26.00;;;11.53;;
17991;SDS011;9121;50.926;5.340;2024-01-15T03:52:39;31.90;;;12.40;;
17991;SDS011;9121;50.926;5.340;2024-01-15T03:55:06;29.10;;;13.00;;
17991;SDS011;9121;50.926;5.340;2024-01-15T03:57:34;27.67;;;11.67;;
17991;SDS011;9121;50.926;5.340;2024-01-15T04:00:00;28.80;;;11.87;;
17991;SDS011;9121;50.926;5.340;2024-01-15T04:02:28;25.83;;;11.00;;
17991;SDS011;9121;50.926;5.340;2024-01-15T04:04:55;27.57;;;11.40;;
17991;SDS011;9121;50.926;5.340;2024-01-15T04:07:23;31.97;;;11.37;;
17991;SDS011;9121;50.926;5.340;2024-01-15T04:09:52;27.63;;;11.47;;
17991;SDS011;9121;50.926;5.340;2024-01-15T04:12:19;25.97;;;11.53;;
17991;SDS011;9121;50.926;5.340;2024-01-15T04:14:46;34.30;;;11.60;;
17991;SDS011;9121;50.926;5.340;2024-01-15T04:17:13;25.00;;;11.77;;
17991;SDS011;9121;50.926;5.340;2024-01-15T04:19:39;29.67;;;11.67;;
17991;SDS011;9121;50.926;5.340;2024-01-15T04:22:09;23.50;;;10.60;;
17991;SDS011;9121;50.926;5.340;2024-01-15T04:24:37;31.03;;;11.83;;
17991;SDS011;9121;50.926;5.340;2024-01-15T04:27:04;27.73;;;11.90;;
17991;SDS011;9121;50.926;5.340;2024-01-15T04:29:31;29.10;;;11.00;;
17991;SDS011;9121;50.926;5.340;2024-01-15T04:31:58;20.67;;;10.80;;
17991;SDS011;9121;50.926;5.340;2024-01-15T04:34:25;25.03;;;11.30;;
17991;SDS011;9121;50.926;5.340;2024-01-15T04:36:52;30.27;;;10.60;;
17991;SDS011;9121;50.926;5.340;2024-01-15T04:39:19;24.67;;;10.23;;
17991;SDS011;9121;50.926;5.340;2024-01-15T04:41:47;30.47;;;12.60;;
17991;SDS011;9121;50.926;5.340;2024-01-15T04:44:14;29.10;;;11.17;;
17991;SDS011;9121;50.926;5.340;2024-01-15T04:46:41;21.80;;;9.87;;
17991;SDS011;9121;50.926;5.340;2024-01-15T04:49:08;25.97;;;11.37;;
17991;SDS011;9121;50.926;5.340;2024-01-15T04:51:37;24.67;;;10.73;;
17991;SDS011;9121;50.926;5.340;2024-01-15T04:54:04;27.17;;;11.30;;
17991;SDS011;9121;50.926;5.340;2024-01-15T04:56:31;28.37;;;10.60;;
17991;SDS011;9121;50.926;5.340;2024-01-15T04:58:59;27.23;;;11.17;;
17991;SDS011;9121;50.926;5.340;2024-01-15T05:01:29;25.00;;;11.13;;
17991;SDS011;9121;50.926;5.340;2024-01-15T05:03:57;31.30;;;11.90;;
17991;SDS011;9121;50.926;5.340;2024-01-15T05:06:24;28.60;;;11.53;;
17991;SDS011;9121;50.926;5.340;2024-01-15T05:08:51;30.83;;;13.00;;
17991;SDS011;9121;50.926;5.340;2024-01-15T05:11:18;29.83;;;13.43;;
17991;SDS011;9121;50.926;5.340;2024-01-15T05:13:45;41.30;;;13.93;;
17991;SDS011;9121;50.926;5.340;2024-01-15T05:16:13;35.47;;;13.90;;
17991;SDS011;9121;50.926;5.340;2024-01-15T05:18:40;39.77;;;15.40;;
17991;SDS011;9121;50.926;5.340;2024-01-15T05:21:08;45.23;;;15.37;;
17991;SDS011;9121;50.926;5.340;2024-01-15T05:23:35;41.87;;;15.33;;
17991;SDS011;9121;50.926;5.340;2024-01-15T05:26:02;40.37;;;16.77;;
17991;SDS011;9121;50.926;5.340;2024-01-15T05:28:29;45.70;;;17.40;;
17991;SDS011;9121;50.926;5.340;2024-01-15T05:30:56;44.23;;;18.80;;
17991;SDS011;9121;50.926;5.340;2024-01-15T05:33:24;45.93;;;18.77;;
17991;SDS011;9121;50.926;5.340;2024-01-15T05:35:51;47.93;;;18.03;;
17991;SDS011;9121;50.926;5.340;2024-01-15T05:38:19;51.47;;;20.03;;
17991;SDS011;9121;50.926;5.340;2024-01-15T05:40:45;48.40;;;20.37;;
17991;SDS011;9121;50.926;5.340;2024-01-15T05:43:12;47.53;;;18.50;;
17991;SDS011;9121;50.926;5.340;2024-01-15T05:45:42;51.80;;;19.47;;
17991;SDS011;9121;50.926;5.340;2024-01-15T05:48:09;48.27;;;20.07;;
17991;SDS011;9121;50.926;5.340;2024-01-15T05:50:38;49.73;;;19.60;;
17991;SDS011;9121;50.926;5.340;2024-01-15T05:53:05;50.77;;;19.77;;
17991;SDS011;9121;50.926;5.340;2024-01-15T05:55:32;55.10;;;19.87;;
17991;SDS011;9121;50.926;5.340;2024-01-15T05:57:59;52.53;;;20.53;;
17991;SDS011;9121;50.926;5.340;2024-01-15T06:00:26;51.87;;;20.03;;
17991;SDS011;9121;50.926;5.340;2024-01-15T06:02:52;49.70;;;19.77;;
17991;SDS011;9121;50.926;5.340;2024-01-15T06:05:20;53.07;;;19.87;;
17991;SDS011;9121;50.926;5.340;2024-01-15T06:07:48;59.73;;;20.17;;
17991;SDS011;9121;50.926;5.340;2024-01-15T06:10:15;49.23;;;18.33;;
17991;SDS011;9121;50.926;5.340;2024-01-15T06:12:42;52.27;;;19.87;;
17991;SDS011;9121;50.926;5.340;2024-01-15T06:15:10;50.40;;;19.47;;
17991;SDS011;9121;50.926;5.340;2024-01-15T06:17:38;46.33;;;19.87;;
17991;SDS011;9121;50.926;5.340;2024-01-15T06:20:05;49.23;;;19.13;;
17991;SDS011;9121;50.926;5.340;2024-01-15T06:22:35;41.53;;;18.23;;
17991;SDS011;9121;50.926;5.340;2024-01-15T06:25:06;47.80;;;18.67;;
17991;SDS011;9121;50.926;5.340;2024-01-15T06:27:33;47.03;;;18.20;;
17991;SDS011;9121;50.926;5.340;2024-01-15T06:30:00;42.63;;;17.63;;
17991;SDS011;9121;50.926;5.340;2024-01-15T06:32:27;41.70;;;17.30;;
17991;SDS011;9121;50.926;5.340;2024-01-15T06:34:54;45.53;;;18.27;;
17991;SDS011;9121;50.926;5.340;2024-01-15T06:37:21;45.27;;;17.10;;
17991;SDS011;9121;50.926;5.340;2024-01-15T06:39:48;39.87;;;17.40;;
17991;SDS011;9121;50.926;5.340;2024-01-15T06:42:16;43.30;;;17.20;;
17991;SDS011;9121;50.926;5.340;2024-01-15T06:44:43;39.47;;;16.53;;
17991;SDS011;9121;50.926;5.340;2024-01-15T06:47:10;47.07;;;18.20;;
17991;SDS011;9121;50.926;5.340;2024-01-15T06:49:37;39.07;;;15.83;;
17991;SDS011;9121;50.926;5.340;2024-01-15T06:52:04;41.67;;;16.07;;
17991;SDS011;9121;50.926;5.340;2024-01-15T06:54:31;38.40;;;17.67;;
17991;SDS011;9121;50.926;5.340;2024-01-15T06:56:58;34.63;;;14.47;;
17991;SDS011;9121;50.926;5.340;2024-01-15T06:59:27;36.93;;;14.47;;
17991;SDS011;9121;50.926;5.340;2024-01-15T07:01:54;37.03;;;14.23;;
17991;SDS011;9121;50.926;5.340;2024-01-15T07:04:21;37.50;;;15.17;;
17991;SDS011;9121;50.926;5.340;2024-01-15T07:06:48;33.20;;;14.03;;
17991;SDS011;9121;50.926;5.340;2024-01-15T07:09:15;32.97;;;14.07;;
17991;SDS011;9121;50.926;5.340;2024-01-15T07:11:44;31.03;;;12.50;;
17991;SDS011;9121;50.926;5.340;2024-01-15T07:14:11;29.73;;;12.13;;
17991;SDS011;9121;50.926;5.340;2024-01-15T07:16:40;31.97;;;12.77;;
17991;SDS011;9121;50.926;5.340;2024-01-15T07:19:07;30.13;;;11.03;;
17991;SDS011;9121;50.926;5.340;2024-01-15T07:21:34;21.97;;;10.80;;
17991;SDS011;9121;50.926;5.340;2024-01-15T07:24:01;21.90;;;10.57;;
17991;SDS011;9121;50.926;5.340;2024-01-15T07:26:29;21.30;;;9.30;;
17991;SDS011;9121;50.926;5.340;2024-01-15T07:28:56;22.37;;;8.80;;
17991;SDS011;9121;50.926;5.340;2024-01-15T07:31:23;21.37;;;8.70;;
17991;SDS011;9121;50.926;5.340;2024-01-15T07:33:51;19.60;;;8.90;;
17991;SDS011;9121;50.926;5.340;2024-01-15T07:36:18;22.60;;;9.07;;
17991;SDS011;9121;50.926;5.340;2024-01-15T07:38:45;18.17;;;8.47;;
17991;SDS011;9121;50.926;5.340;2024-01-15T07:41:12;23.10;;;7.87;;
17991;SDS011;9121;50.926;5.340;2024-01-15T07:43:39;21.97;;;9.67;;
17991;SDS011;9121;50.926;5.340;2024-01-15T07:46:07;20.07;;;7.57;;
17991;SDS011;9121;50.926;5.340;2024-01-15T07:48:34;16.57;;;8.00;;
17991;SDS011;9121;50.926;5.340;2024-01-15T07:51:02;19.07;;;7.10;;
17991;SDS011;9121;50.926;5.340;2024-01-15T07:53:30;19.87;;;6.67;;
17991;SDS011;9121;50.926;5.340;2024-01-15T07:55:57;14.03;;;6.43;;
17991;SDS011;9121;50.926;5.340;2024-01-15T07:58:23;16.90;;;6.77;;
17991;SDS011;9121;50.926;5.340;2024-01-15T08:00:50;14.93;;;5.97;;
17991;SDS011;9121;50.926;5.340;2024-01-15T08:03:18;11.47;;;5.87;;
17991;SDS011;9121;50.926;5.340;2024-01-15T08:05:44;15.87;;;5.77;;
17991;SDS011;9121;50.926;5.340;2024-01-15T08:08:13;12.57;;;5.20;;
17991;SDS011;9121;50.926;5.340;2024-01-15T08:10:40;11.50;;;5.13;;
17991;SDS011;9121;50.926;5.340;2024-01-15T08:13:07;12.03;;;4.97;;
17991;SDS011;9121;50.926;5.340;2024-01-15T08:15:34;14.90;;;4.90;;
17991;SDS011;9121;50.926;5.340;2024-01-15T08:18:01;12.03;;;4.70;;
17991;SDS011;9121;50.926;5.340;2024-01-15T08:20:29;13.73;;;4.80;;
17991;SDS011;9121;50.926;5.340;2024-01-15T08:22:56;13.60;;;5.37;;
17991;SDS011;9121;50.926;5.340;2024-01-15T08:25:24;10.70;;;4.83;;
17991;SDS011;9121;50.926;5.340;2024-01-15T08:27:51;10.87;;;4.87;;
17991;SDS011;9121;50.926;5.340;2024-01-15T08:30:18;9.57;;;4.53;;
17991;SDS011;9121;50.926;5.340;2024-01-15T08:32:45;18.07;;;5.20;;
17991;SDS011;9121;50.926;5.340;2024-01-15T08:35:12;15.07;;;4.67;;
17991;SDS011;9121;50.926;5.340;2024-01-15T08:37:39;12.33;;;5.17;;
17991;SDS011;9121;50.926;5.340;2024-01-15T08:40:06;13.37;;;5.23;;
17991;SDS011;9121;50.926;5.340;2024-01-15T08:42:35;18.43;;;5.53;;
17991;SDS011;9121;50.926;5.340;2024-01-15T08:45:02;17.63;;;6.40;;
17991;SDS011;9121;50.926;5.340;2024-01-15T08:47:29;13.83;;;6.17;;
17991;SDS011;9121;50.926;5.340;2024-01-15T08:49:56;12.50;;;5.40;;
17991;SDS011;9121;50.926;5.340;2024-01-15T08:52:24;17.83;;;5.40;;
17991;SDS011;9121;50.926;5.340;2024-01-15T08:54:51;11.97;;;4.90;;
17991;SDS011;9121;50.926;5.340;2024-01-15T08:57:18;16.27;;;5.73;;
17991;SDS011;9121;50.926;5.340;2024-01-15T08:59:46;13.03;;;4.87;;
17991;SDS011;9121;50.926;5.340;2024-01-15T09:02:13;12.60;;;5.20;;
17991;SDS011;9121;50.926;5.340;2024-01-15T09:04:40;12.10;;;4.30;;
17991;SDS011;9121;50.926;5.340;2024-01-15T09:07:07;11.43;;;4.20;;
17991;SDS011;9121;50.926;5.340;2024-01-15T09:09:34;13.70;;;4.00;;
17991;SDS011;9121;50.926;5.340;2024-01-15T09:12:01;10.97;;;5.20;;
17991;SDS011;9121;50.926;5.340;2024-01-15T09:14:28;13.50;;;5.63;;
17991;SDS011;9121;50.926;5.340;2024-01-15T09:16:56;9.33;;;4.43;;
17991;SDS011;9121;50.926;5.340;2024-01-15T09:19:23;14.40;;;4.97;;
17991;SDS011;9121;50.926;5.340;2024-01-15T09:21:50;12.97;;;4.83;;
17991;SDS011;9121;50.926;5.340;2024-01-15T09:24:17;14.13;;;6.17;;
17991;SDS011;9121;50.926;5.340;2024-01-15T09:26:44;13.90;;;5.27;;
17991;SDS011;9121;50.926;5.340;2024-01-15T09:29:11;16.17;;;5.80;;
17991;SDS011;9121;50.926;5.340;2024-01-15T09:31:41;15.23;;;6.23;;
17991;SDS011;9121;50.926;5.340;2024-01-15T09:34:09;14.80;;;6.33;;
17991;SDS011;9121;50.926;5.340;2024-01-15T09:36:38;18.93;;;4.87;;
17991;SDS011;9121;50.926;5.340;2024-01-15T09:39:07;14.73;;;5.13;;
17991;SDS011;9121;50.926;5.340;2024-01-15T09:41:34;13.33;;;5.80;;
17991;SDS011;9121;50.926;5.340;2024-01-15T09:44:02;13.77;;;6.57;;
17991;SDS011;9121;50.926;5.340;2024-01-15T09:46:30;11.70;;;5.10;;
17991;SDS011;9121;50.926;5.340;2024-01-15T09:48:58;12.37;;;5.30;;
17991;SDS011;9121;50.926;5.340;2024-01-15T09:51:27;13.87;;;5.40;;
17991;SDS011;9121;50.926;5.340;2024-01-15T09:53:57;12.33;;;4.90;;
17991;SDS011;9121;50.926;5.340;2024-01-15T09:56:24;12.10;;;5.20;;
17991;SDS011;9121;50.926;5.340;2024-01-15T09:58:51;16.07;;;4.50;;
17991;SDS011;9121;50.926;5.340;2024-01-15T10:01:19;14.50;;;5.10;;
17991;SDS011;9121;50.926;5.340;2024-01-15T10:03:46;13.90;;;4.10;;
17991;SDS011;9121;50.926;5.340;2024-01-15T10:06:13;16.00;;;4.63;;
17991;SDS011;9121;50.926;5.340;2024-01-15T10:08:44;11.93;;;3.60;;
17991;SDS011;9121;50.926;5.340;2024-01-15T10:11:14;10.63;;;3.83;;
17991;SDS011;9121;50.926;5.340;2024-01-15T10:13:42;11.87;;;3.73;;
17991;SDS011;9121;50.926;5.340;2024-01-15T10:16:10;15.07;;;4.23;;
17991;SDS011;9121;50.926;5.340;2024-01-15T10:18:37;12.13;;;4.30;;
17991;SDS011;9121;50.926;5.340;2024-01-15T10:21:05;19.10;;;4.90;;
17991;SDS011;9121;50.926;5.340;2024-01-15T10:23:33;17.13;;;4.07;;
17991;SDS011;9121;50.926;5.340;2024-01-15T10:26:02;17.10;;;3.23;;
17991;SDS011;9121;50.926;5.340;2024-01-15T10:28:30;11.43;;;2.90;;
17991;SDS011;9121;50.926;5.340;2024-01-15T10:30:58;7.57;;;2.80;;
17991;SDS011;9121;50.926;5.340;2024-01-15T10:33:25;10.13;;;2.80;;
17991;SDS011;9121;50.926;5.340;2024-01-15T10:35:53;9.20;;;2.73;;
17991;SDS011;9121;50.926;5.340;2024-01-15T10:38:21;15.23;;;2.93;;
17991;SDS011;9121;50.926;5.340;2024-01-15T10:40:50;12.53;;;2.73;;
17991;SDS011;9121;50.926;5.340;2024-01-15T10:43:20;12.40;;;2.67;;
17991;SDS011;9121;50.926;5.340;2024-01-15T10:45:48;11.53;;;2.83;;
17991;SDS011;9121;50.926;5.340;2024-01-15T10:48:17;11.10;;;2.40;;
17991;SDS011;9121;50.926;5.340;2024-01-15T10:50:45;13.83;;;2.37;;
17991;SDS011;9121;50.926;5.340;2024-01-15T10:53:14;13.17;;;2.80;;
17991;SDS011;9121;50.926;5.340;2024-01-15T10:55:42;10.53;;;2.40;;
17991;SDS011;9121;50.926;5.340;2024-01-15T10:58:09;9.27;;;2.50;;
17991;SDS011;9121;50.926;5.340;2024-01-15T11:00:38;18.60;;;3.70;;
17991;SDS011;9121;50.926;5.340;2024-01-15T11:03:05;10.47;;;2.23;;
17991;SDS011;9121;50.926;5.340;2024-01-15T11:05:33;10.63;;;2.27;;
17991;SDS011;9121;50.926;5.340;2024-01-15T11:08:04;12.03;;;2.33;;
17991;SDS011;9121;50.926;5.340;2024-01-15T11:10:38;10.33;;;2.50;;
17991;SDS011;9121;50.926;5.340;2024-01-15T11:13:08;13.90;;;2.83;;
17991;SDS011;9121;50.926;5.340;2024-01-15T11:18:22;10.37;;;2.30;;
17991;SDS011;9121;50.926;5.340;2024-01-15T11:23:47;11.00;;;2.50;;
17991;SDS011;9121;50.926;5.340;2024-01-15T11:26:26;12.57;;;2.77;;
17991;SDS011;9121;50.926;5.340;2024-01-15T11:28:54;18.67;;;2.43;;
17991;SDS011;9121;50.926;5.340;2024-01-15T11:31:27;7.03;;;2.07;;
17991;SDS011;9121;50.926;5.340;2024-01-15T11:33:54;12.70;;;2.90;;
17991;SDS011;9121;50.926;5.340;2024-01-15T11:36:21;10.63;;;2.40;;
17991;SDS011;9121;50.926;5.340;2024-01-15T11:42:11;8.30;;;2.73;;
17991;SDS011;9121;50.926;5.340;2024-01-15T11:44:39;11.80;;;2.50;;
17991;SDS011;9121;50.926;5.340;2024-01-15T11:47:08;8.60;;;2.63;;
17991;SDS011;9121;50.926;5.340;2024-01-15T11:52:27;12.93;;;2.80;;
17991;SDS011;9121;50.926;5.340;2024-01-15T11:57:46;8.13;;;3.00;;
17991;SDS011;9121;50.926;5.340;2024-01-15T12:00:16;9.30;;;2.83;;
17991;SDS011;9121;50.926;5.340;2024-01-15T12:02:45;7.87;;;2.97;;
17991;SDS011;9121;50.926;5.340;2024-01-15T12:05:13;8.17;;;3.07;;
17991;SDS011;9121;50.926;5.340;2024-01-15T12:07:41;15.77;;;3.17;;
17991;SDS011;9121;50.926;5.340;2024-01-15T12:10:09;13.90;;;4.10;;
17991;SDS011;9121;50.926;5.340;2024-01-15T12:15:27;10.60;;;2.77;;
17991;SDS011;9121;50.926;5.340;2024-01-15T12:17:57;5.10;;;2.50;;
17991;SDS011;9121;50.926;5.340;2024-01-15T12:20:25;6.03;;;2.80;;
17991;SDS011;9121;50.926;5.340;2024-01-15T12:22:53;6.23;;;3.03;;
17991;SDS011;9121;50.926;5.340;2024-01-15T12:25:20;3.63;;;2.50;;
17991;SDS011;9121;50.926;5.340;2024-01-15T12:27:47;12.57;;;2.63;;
17991;SDS011;9121;50.926;5.340;2024-01-15T12:30:14;4.93;;;3.00;;
17991;SDS011;9121;50.926;5.340;2024-01-15T12:32:41;8.50;;;2.63;;
17991;SDS011;9121;50.926;5.340;2024-01-15T12:35:10;5.97;;;2.60;;
17991;SDS011;9121;50.926;5.340;2024-01-15T12:37:38;5.50;;;2.77;;
17991;SDS011;9121;50.926;5.340;2024-01-15T12:40:06;7.80;;;2.73;;
17991;SDS011;9121;50.926;5.340;2024-01-15T12:42:35;5.00;;;2.73;;
17991;SDS011;9121;50.926;5.340;2024-01-15T12:45:02;11.10;;;3.80;;
17991;SDS011;9121;50.926;5.340;2024-01-15T12:47:29;7.30;;;3.50;;
17991;SDS011;9121;50.926;5.340;2024-01-15T12:49:57;6.97;;;3.30;;
17991;SDS011;9121;50.926;5.340;2024-01-15T12:52:27;6.57;;;2.80;;
17991;SDS011;9121;50.926;5.340;2024-01-15T12:54:55;7.17;;;2.77;;
17991;SDS011;9121;50.926;5.340;2024-01-15T12:57:22;6.83;;;3.77;;
17991;SDS011;9121;50.926;5.340;2024-01-15T12:59:49;8.00;;;3.00;;
17991;SDS011;9121;50.926;5.340;2024-01-15T13:02:16;12.10;;;3.47;;
17991;SDS011;9121;50.926;5.340;2024-01-15T13:04:43;10.83;;;3.23;;
17991;SDS011;9121;50.926;5.340;2024-01-15T13:07:10;7.30;;;2.80;;
17991;SDS011;9121;50.926;5.340;2024-01-15T13:09:39;7.30;;;2.73;;
17991;SDS011;9121;50.926;5.340;2024-01-15T13:12:06;8.00;;;2.63;;
17991;SDS011;9121;50.926;5.340;2024-01-15T13:14:33;10.90;;;2.57;;
17991;SDS011;9121;50.926;5.340;2024-01-15T13:17:01;3.63;;;1.97;;
17991;SDS011;9121;50.926;5.340;2024-01-15T13:19:28;4.30;;;1.80;;
17991;SDS011;9121;50.926;5.340;2024-01-15T13:21:55;5.93;;;2.33;;
17991;SDS011;9121;50.926;5.340;2024-01-15T13:24:25;8.70;;;2.30;;
17991;SDS011;9121;50.926;5.340;2024-01-15T13:26:53;3.53;;;1.90;;
17991;SDS011;9121;50.926;5.340;2024-01-15T13:29:22;3.97;;;2.20;;
17991;SDS011;9121;50.926;5.340;2024-01-15T13:31:49;7.27;;;1.77;;
17991;SDS011;9121;50.926;5.340;2024-01-15T13:34:16;7.83;;;2.20;;
17991;SDS011;9121;50.926;5.340;2024-01-15T13:36:43;7.47;;;2.53;;
17991;SDS011;9121;50.926;5.340;2024-01-15T13:39:10;5.37;;;2.13;;
17991;SDS011;9121;50.926;5.340;2024-01-15T13:41:37;7.17;;;2.40;;
17991;SDS011;9121;50.926;5.340;2024-01-15T13:44:05;6.33;;;2.70;;
17991;SDS011;9121;50.926;5.340;2024-01-15T13:46:32;3.97;;;2.63;;
17991;SDS011;9121;50.926;5.340;2024-01-15T13:49:00;7.33;;;3.10;;
17991;SDS011;9121;50.926;5.340;2024-01-15T13:51:29;6.20;;;2.57;;
17991;SDS011;9121;50.926;5.340;2024-01-15T13:53:56;6.03;;;3.07;;
17991;SDS011;9121;50.926;5.340;2024-01-15T13:56:23;7.23;;;2.60;;
17991;SDS011;9121;50.926;5.340;2024-01-15T13:58:50;6.00;;;2.77;;
17991;SDS011;9121;50.926;5.340;2024-01-15T14:01:19;15.30;;;5.10;;
17991;SDS011;9121;50.926;5.340;2024-01-15T14:03:46;6.63;;;2.27;;
17991;SDS011;9121;50.926;5.340;2024-01-15T14:06:13;7.87;;;2.23;;
17991;SDS011;9121;50.926;5.340;2024-01-15T14:08:40;5.20;;;1.90;;
17991;SDS011;9121;50.926;5.340;2024-01-15T14:11:07;4.77;;;2.13;;
17991;SDS011;9121;50.926;5.340;2024-01-15T14:13:35;4.20;;;1.80;;
17991;SDS011;9121;50.926;5.340;2024-01-15T14:16:02;3.43;;;1.77;;
17991;SDS011;9121;50.926;5.340;2024-01-15T14:18:31;4.30;;;1.63;;
17991;SDS011;9121;50.926;5.340;2024-01-15T14:20:58;4.10;;;1.90;;
17991;SDS011;9121;50.926;5.340;2024-01-15T14:23:25;13.70;;;2.80;;
17991;SDS011;9121;50.926;5.340;2024-01-15T14:25:52;2.97;;;1.60;;
17991;SDS011;9121;50.926;5.340;2024-01-15T14:28:19;4.43;;;2.10;;
17991;SDS011;9121;50.926;5.340;2024-01-15T14:30:46;3.43;;;1.67;;
17991;SDS011;9121;50.926;5.340;2024-01-15T14:33:13;5.03;;;1.80;;
17991;SDS011;9121;50.926;5.340;2024-01-15T14:35:41;5.00;;;1.97;;
17991;SDS011;9121;50.926;5.340;2024-01-15T14:38:08;5.57;;;2.07;;
17991;SDS011;9121;50.926;5.340;2024-01-15T14:40:35;5.07;;;3.17;;
17991;SDS011;9121;50.926;5.340;2024-01-15T14:43:02;3.03;;;2.13;;
17991;SDS011;9121;50.926;5.340;2024-01-15T14:45:29;4.83;;;1.90;;
17991;SDS011;9121;50.926;5.340;2024-01-15T14:47:56;5.87;;;2.03;;
17991;SDS011;9121;50.926;5.340;2024-01-15T14:50:23;3.33;;;1.80;;
17991;SDS011;9121;50.926;5.340;2024-01-15T14:52:52;6.33;;;2.23;;
17991;SDS011;9121;50.926;5.340;2024-01-15T14:55:19;5.80;;;3.10;;
17991;SDS011;9121;50.926;5.340;2024-01-15T14:57:48;8.07;;;2.90;;
17991;SDS011;9121;50.926;5.340;2024-01-15T15:00:15;5.03;;;3.10;;
17991;SDS011;9121;50.926;5.340;2024-01-15T15:02:43;9.40;;;3.90;;